createdAt,value
2022-12-26T00:01:09.423Z,5.30
2022-12-26T00:03:37.864Z,5.67
2022-12-26T00:06:12.124Z,6.87
2022-12-26T00:08:41.219Z,4.00
2022-12-26T00:11:09.026Z,4.60
2022-12-26T00:13:38.753Z,4.30
2022-12-26T00:16:09.750Z,4.30
2022-12-26T00:18:37.838Z,6.23
2022-12-26T00:21:05.988Z,4.87
2022-12-26T00:23:34.129Z,5.27
2022-12-26T00:26:06.003Z,4.20
2022-12-26T00:28:33.811Z,3.47
2022-12-26T00:31:05.168Z,3.70
2022-12-26T00:33:33.022Z,4.27
2022-12-26T00:36:02.595Z,3.47
2022-12-26T00:38:30.775Z,3.53
2022-12-26T00:40:58.575Z,3.57
2022-12-26T00:43:27.727Z,3.80
2022-12-26T00:45:55.531Z,4.07
2022-12-26T00:48:23.405Z,3.43
2022-12-26T00:50:51.490Z,3.30
2022-12-26T00:53:19.702Z,4.13
2022-12-26T00:55:47.492Z,3.77
2022-12-26T00:58:15.278Z,3.20
2022-12-26T01:00:44.481Z,3.87
2022-12-26T01:03:13.651Z,3.00
2022-12-26T01:05:42.934Z,2.93
2022-12-26T01:08:19.721Z,5.07
2022-12-26T01:10:50.040Z,3.27
2022-12-26T01:13:17.812Z,3.87
2022-12-26T01:15:50.733Z,3.77
2022-12-26T01:18:19.071Z,3.43
2022-12-26T01:20:46.891Z,3.57
2022-12-26T01:23:14.811Z,4.83
2022-12-26T01:26:16.574Z,2.87
2022-12-26T01:28:30.346Z,3.47
2022-12-26T01:31:03.814Z,3.53
2022-12-26T01:33:32.190Z,3.77
2022-12-26T01:36:00.386Z,5.23
2022-12-26T01:38:28.378Z,2.57
2022-12-26T01:41:10.181Z,3.33
2022-12-26T01:43:56.052Z,3.27
2022-12-26T01:46:29.690Z,3.53
2022-12-26T01:49:01.671Z,2.60
2022-12-26T01:51:32.614Z,2.93
2022-12-26T01:54:38.078Z,3.47
2022-12-26T01:56:50.714Z,2.97
2022-12-26T01:59:22.045Z,4.40
2022-12-26T02:01:53.615Z,4.63
2022-12-26T02:04:42.191Z,3.03
2022-12-26T02:07:10.335Z,3.03
2022-12-26T02:09:38.729Z,3.10
2022-12-26T02:12:35.808Z,3.90
2022-12-26T02:15:02.547Z,2.90
2022-12-26T02:17:31.979Z,2.97
2022-12-26T02:20:06.001Z,2.70
2022-12-26T02:23:04.005Z,2.90
2022-12-26T02:26:04.235Z,2.10
2022-12-26T02:29:05.461Z,3.07
2022-12-26T02:31:44.892Z,3.33
2022-12-26T02:34:17.261Z,2.87
2022-12-26T02:37:04.175Z,2.70
2022-12-26T02:39:48.958Z,3.93
2022-12-26T02:42:28.192Z,2.90
2022-12-26T02:45:20.505Z,3.03
2022-12-26T02:47:55.633Z,5.27
2022-12-26T02:50:48.859Z,3.50
2022-12-26T02:53:43.426Z,4.23
2022-12-26T02:56:37.054Z,4.00
2022-12-26T02:59:54.241Z,2.50
2022-12-26T03:02:42.688Z,3.10
2022-12-26T03:05:37.066Z,2.73
2022-12-26T03:08:25.200Z,3.67
2022-12-26T03:11:12.643Z,2.63
2022-12-26T03:13:42.911Z,3.77
2022-12-26T03:16:45.336Z,2.73
2022-12-26T03:19:14.294Z,2.87
2022-12-26T03:21:46.361Z,3.90
2022-12-26T03:24:17.804Z,2.97
2022-12-26T03:26:50.111Z,4.23
2022-12-26T03:29:37.140Z,2.60
2022-12-26T03:32:07.229Z,3.03
2022-12-26T03:34:35.891Z,2.90
2022-12-26T03:37:48.960Z,2.53
2022-12-26T03:41:09.603Z,2.67
2022-12-26T03:44:14.283Z,2.00
2022-12-26T03:47:11.804Z,4.30
2022-12-26T03:50:03.993Z,2.17
2022-12-26T03:52:57.526Z,2.33
2022-12-26T03:55:48.043Z,2.50
2022-12-26T03:58:38.408Z,3.20
2022-12-26T04:01:29.099Z,4.60
2022-12-26T04:04:16.011Z,3.83
2022-12-26T04:07:14.346Z,2.50
2022-12-26T04:10:04.684Z,3.50
2022-12-26T04:12:52.255Z,3.03
2022-12-26T04:15:44.345Z,2.83
2022-12-26T04:18:33.823Z,2.17
2022-12-26T04:21:33.250Z,2.57
2022-12-26T04:24:24.292Z,2.40
2022-12-26T04:27:13.546Z,2.70
2022-12-26T04:29:59.142Z,2.63
2022-12-26T04:32:53.907Z,2.40
2022-12-26T04:35:42.993Z,2.23
2022-12-26T04:38:32.035Z,3.03
2022-12-26T04:41:20.166Z,2.37
2022-12-26T04:44:07.005Z,5.20
2022-12-26T04:46:37.664Z,3.07
2022-12-26T04:49:26.655Z,2.30
2022-12-26T04:51:56.819Z,2.30
2022-12-26T04:54:24.822Z,4.03
2022-12-26T04:56:53.096Z,2.10
2022-12-26T04:59:22.451Z,2.50
2022-12-26T05:02:08.171Z,2.53
2022-12-26T05:04:54.791Z,2.60
2022-12-26T05:07:41.616Z,2.60
2022-12-26T05:10:15.165Z,2.13
2022-12-26T05:12:43.035Z,2.20
2022-12-26T05:15:11.679Z,2.20
2022-12-26T05:17:56.915Z,3.30
2022-12-26T05:20:43.621Z,2.03
2022-12-26T05:23:36.700Z,5.27
2022-12-26T05:26:23.120Z,2.30
2022-12-26T05:28:56.457Z,2.63
2022-12-26T05:31:26.281Z,2.00
2022-12-26T05:34:10.399Z,2.73
2022-12-26T05:36:43.486Z,2.70
2022-12-26T05:39:11.551Z,2.27
2022-12-26T05:41:40.690Z,2.13
2022-12-26T05:44:09.419Z,2.37
2022-12-26T05:46:37.999Z,2.83
2022-12-26T05:49:06.944Z,2.37
2022-12-26T05:51:35.098Z,2.63
2022-12-26T05:54:04.671Z,4.23
2022-12-26T05:56:32.524Z,2.57
2022-12-26T05:59:02.026Z,2.00
2022-12-26T06:01:31.220Z,2.13
2022-12-26T06:04:01.041Z,2.43
2022-12-26T06:06:29.317Z,2.53
2022-12-26T06:08:58.470Z,3.27
2022-12-26T06:11:28.269Z,1.70
2022-12-26T06:13:56.818Z,2.03
2022-12-26T06:16:24.827Z,2.20
2022-12-26T06:18:52.818Z,2.50
2022-12-26T06:21:21.211Z,4.23
2022-12-26T06:23:49.542Z,2.33
2022-12-26T06:26:18.095Z,1.80
2022-12-26T06:28:47.796Z,4.07
2022-12-26T06:31:18.082Z,1.93
2022-12-26T06:33:46.132Z,3.13
2022-12-26T06:36:15.855Z,1.80
2022-12-26T06:38:44.129Z,1.67
2022-12-26T06:41:14.410Z,2.80
2022-12-26T06:43:42.598Z,1.97
2022-12-26T06:46:14.618Z,2.70
2022-12-26T06:48:42.595Z,2.33
2022-12-26T06:51:13.294Z,2.00
2022-12-26T06:53:41.396Z,4.90
2022-12-26T06:56:11.131Z,2.03
2022-12-26T06:58:39.395Z,4.73
2022-12-26T07:01:08.721Z,3.47
2022-12-26T07:03:38.172Z,2.20
2022-12-26T07:06:08.190Z,1.90
2022-12-26T07:08:36.043Z,2.30
2022-12-26T07:11:03.931Z,2.90
2022-12-26T07:13:31.851Z,3.40
2022-12-26T07:16:00.715Z,3.63
2022-12-26T07:18:28.823Z,4.07
2022-12-26T07:20:58.093Z,3.23
2022-12-26T07:23:25.993Z,2.60
2022-12-26T07:25:53.853Z,4.83
2022-12-26T07:28:21.750Z,3.10
2022-12-26T07:30:49.879Z,3.07
2022-12-26T07:33:18.308Z,2.63
2022-12-26T07:35:46.270Z,2.27
2022-12-26T07:38:15.880Z,2.20
2022-12-26T07:40:43.773Z,2.70
2022-12-26T07:43:11.886Z,2.03
2022-12-26T07:45:45.316Z,2.00
2022-12-26T07:48:13.766Z,3.70
2022-12-26T07:50:41.926Z,2.43
2022-12-26T07:53:09.802Z,2.20
2022-12-26T07:55:39.031Z,2.83
2022-12-26T07:58:06.994Z,1.93
2022-12-26T08:00:35.019Z,2.37
2022-12-26T08:03:07.178Z,2.23
2022-12-26T08:05:36.491Z,1.77
2022-12-26T08:08:04.730Z,2.73
2022-12-26T08:10:32.646Z,2.53
2022-12-26T08:13:01.862Z,2.07
2022-12-26T08:15:29.736Z,2.60
2022-12-26T08:17:57.610Z,2.10
2022-12-26T08:20:25.730Z,3.37
2022-12-26T08:22:53.585Z,3.30
2022-12-26T08:25:22.119Z,3.70
2022-12-26T08:27:50.297Z,4.03
2022-12-26T08:30:19.559Z,3.43
2022-12-26T08:32:47.429Z,4.53
2022-12-26T08:35:15.375Z,22.87
2022-12-26T08:37:43.224Z,9.00
2022-12-26T08:40:12.883Z,4.70
2022-12-26T08:42:56.259Z,3.33
2022-12-26T08:45:30.137Z,6.80
2022-12-26T08:47:58.126Z,4.53
2022-12-26T08:50:26.472Z,2.83
2022-12-26T08:52:54.354Z,3.30
2022-12-26T08:55:22.214Z,2.30
2022-12-26T08:57:50.077Z,3.40
2022-12-26T09:00:18.535Z,3.07
2022-12-26T09:02:49.406Z,4.10
2022-12-26T09:05:17.455Z,5.07
2022-12-26T09:07:45.339Z,2.27
2022-12-26T09:10:13.234Z,2.77
2022-12-26T09:12:41.116Z,2.80
2022-12-26T09:15:09.725Z,2.83
2022-12-26T09:17:37.604Z,2.17
2022-12-26T09:20:08.190Z,2.27
2022-12-26T09:22:51.374Z,2.80
2022-12-26T09:25:19.725Z,4.47
2022-12-26T09:27:48.444Z,1.97
2022-12-26T09:30:17.172Z,3.90
2022-12-26T09:32:45.055Z,3.73
2022-12-26T09:35:14.697Z,5.03
2022-12-26T09:37:42.595Z,3.70
2022-12-26T09:40:24.332Z,4.17
2022-12-26T09:43:05.774Z,4.50
2022-12-26T09:45:50.125Z,4.27
2022-12-26T09:48:27.662Z,5.37
2022-12-26T09:50:56.976Z,4.20
2022-12-26T09:53:30.484Z,3.60
2022-12-26T09:56:01.952Z,3.63
2022-12-26T09:58:31.999Z,3.37
2022-12-26T10:01:11.110Z,3.00
2022-12-26T10:03:42.879Z,2.80
2022-12-26T10:06:16.298Z,2.37
2022-12-26T10:09:04.802Z,2.53
2022-12-26T10:11:45.748Z,2.90
2022-12-26T10:14:22.292Z,2.67
2022-12-26T10:16:55.961Z,2.60
2022-12-26T10:19:44.080Z,2.40
2022-12-26T10:22:40.088Z,2.30
2022-12-26T10:25:17.569Z,2.37
2022-12-26T10:27:49.235Z,4.30
2022-12-26T10:30:22.498Z,3.10
2022-12-26T10:33:01.606Z,3.77
2022-12-26T10:35:33.105Z,3.73
2022-12-26T10:38:11.744Z,4.87
2022-12-26T10:40:42.339Z,3.87
2022-12-26T10:43:23.412Z,5.17
2022-12-26T10:45:59.970Z,5.67
2022-12-26T10:48:29.952Z,4.87
2022-12-26T10:50:57.866Z,4.73
2022-12-26T10:53:27.179Z,5.30
2022-12-26T10:55:57.041Z,3.40
2022-12-26T10:58:29.690Z,5.27
2022-12-26T11:00:58.275Z,3.53
2022-12-26T11:03:26.345Z,3.40
2022-12-26T11:06:07.578Z,3.20
2022-12-26T11:08:43.085Z,3.70
2022-12-26T11:11:15.615Z,4.73
2022-12-26T11:13:49.633Z,4.47
2022-12-26T11:16:26.412Z,3.87
2022-12-26T11:18:55.438Z,4.30
2022-12-26T11:21:26.597Z,4.57
2022-12-26T11:24:15.386Z,4.53
2022-12-26T11:26:43.271Z,3.93
2022-12-26T11:29:13.749Z,2.97
2022-12-26T11:31:44.063Z,2.80
2022-12-26T11:34:18.653Z,4.07
2022-12-26T11:36:49.417Z,3.07
2022-12-26T11:39:24.716Z,2.40
2022-12-26T11:41:53.609Z,3.70
2022-12-26T11:44:25.886Z,3.77
2022-12-26T11:46:58.067Z,3.60
2022-12-26T11:49:30.936Z,3.00
2022-12-26T11:52:00.207Z,2.90
2022-12-26T11:54:36.342Z,3.33
2022-12-26T11:57:16.123Z,3.17
2022-12-26T11:59:44.577Z,3.20
2022-12-26T12:02:28.096Z,2.70
2022-12-26T12:05:00.266Z,2.80
2022-12-26T12:07:44.627Z,4.80
2022-12-26T12:10:44.741Z,2.80
2022-12-26T12:17:23.784Z,2.50
2022-12-26T12:20:04.057Z,2.30
2022-12-26T12:22:50.498Z,2.73
2022-12-26T12:25:29.402Z,2.93
2022-12-26T12:28:05.118Z,2.10
2022-12-26T12:30:38.430Z,2.03
2022-12-26T12:33:28.108Z,6.30
2022-12-26T12:36:06.726Z,4.57
2022-12-26T12:38:41.633Z,3.30
2022-12-26T12:41:23.977Z,2.80
2022-12-26T12:44:01.093Z,3.53
2022-12-26T12:46:34.872Z,2.10
2022-12-26T12:49:23.754Z,6.17
2022-12-26T12:52:01.309Z,4.10
2022-12-26T12:54:58.055Z,4.20
2022-12-26T12:57:33.037Z,2.90
2022-12-26T13:00:13.008Z,2.70
2022-12-26T13:02:44.871Z,3.53
2022-12-26T13:05:21.241Z,2.83
2022-12-26T13:07:55.245Z,1.57
2022-12-26T13:10:27.743Z,1.73
2022-12-26T13:12:58.406Z,1.47
2022-12-26T13:15:33.471Z,2.60
2022-12-26T13:18:06.761Z,1.57
2022-12-26T13:20:41.423Z,1.57
2022-12-26T13:23:34.996Z,1.57
2022-12-26T13:26:11.922Z,1.93
2022-12-26T13:28:49.753Z,3.27
2022-12-26T13:31:18.019Z,2.63
2022-12-26T13:33:45.979Z,1.30
2022-12-26T13:36:35.586Z,1.40
2022-12-26T13:39:31.959Z,1.20
2022-12-26T13:42:22.031Z,1.40
2022-12-26T13:44:53.551Z,2.27
2022-12-26T13:47:36.470Z,1.30
2022-12-26T13:50:53.426Z,1.70
2022-12-26T13:53:32.686Z,1.23
2022-12-26T13:56:02.969Z,1.73
2022-12-26T13:58:41.755Z,1.70
2022-12-26T14:01:26.930Z,1.77
2022-12-26T14:04:18.452Z,1.43
2022-12-26T14:06:59.176Z,2.77
2022-12-26T14:09:41.206Z,1.77
2022-12-26T14:12:37.689Z,1.70
2022-12-26T14:15:26.394Z,1.60
2022-12-26T14:18:09.299Z,2.77
2022-12-26T14:20:43.438Z,1.60
2022-12-26T14:23:31.889Z,1.10
2022-12-26T14:26:06.498Z,1.20
2022-12-26T14:28:48.399Z,1.70
2022-12-26T14:31:22.854Z,2.00
2022-12-26T14:34:02.977Z,1.37
2022-12-26T14:36:43.622Z,3.67
2022-12-26T14:39:23.437Z,2.83
2022-12-26T14:42:35.299Z,2.93
2022-12-26T14:45:05.525Z,2.60
2022-12-26T14:47:43.297Z,1.80
2022-12-26T14:50:41.591Z,2.00
2022-12-26T14:53:33.003Z,1.37
2022-12-26T14:56:03.673Z,1.87
2022-12-26T14:58:47.111Z,1.27
2022-12-26T15:01:50.514Z,1.57
2022-12-26T15:04:57.133Z,1.87
2022-12-26T15:07:49.176Z,2.33
2022-12-26T15:10:42.913Z,2.43
2022-12-26T15:13:48.224Z,2.00
2022-12-26T15:16:29.450Z,3.03
2022-12-26T15:19:36.440Z,2.47
2022-12-26T15:22:36.049Z,3.10
2022-12-26T15:25:37.587Z,3.60
2022-12-26T15:28:41.480Z,3.47
2022-12-26T15:31:27.709Z,2.20
2022-12-26T15:34:03.564Z,2.03
2022-12-26T15:36:42.278Z,2.43
2022-12-26T15:39:24.561Z,1.93
2022-12-26T15:42:03.318Z,4.33
2022-12-26T15:44:40.913Z,1.70
2022-12-26T15:47:19.291Z,1.50
2022-12-26T15:50:02.609Z,2.10
2022-12-26T15:52:44.505Z,3.50
2022-12-26T15:55:33.688Z,2.60
2022-12-26T15:58:08.152Z,1.37
2022-12-26T16:00:41.144Z,1.63
2022-12-26T16:03:22.291Z,1.97
2022-12-26T16:05:59.361Z,1.40
2022-12-26T16:09:03.891Z,1.27
2022-12-26T16:11:42.878Z,1.20
2022-12-26T16:14:24.626Z,1.20
2022-12-26T16:16:54.130Z,1.60
2022-12-26T16:19:23.849Z,1.50
2022-12-26T16:22:24.196Z,2.30
2022-12-26T16:24:52.847Z,1.30
2022-12-26T16:27:23.374Z,2.40
2022-12-26T16:29:53.578Z,1.33
2022-12-26T16:32:29.639Z,1.33
2022-12-26T16:34:59.191Z,2.30
2022-12-26T16:37:28.146Z,3.83
2022-12-26T16:40:18.108Z,2.33
2022-12-26T16:42:57.145Z,2.10
2022-12-26T16:45:26.460Z,2.43
2022-12-26T16:47:56.517Z,3.07
2022-12-26T16:50:26.611Z,1.60
2022-12-26T16:53:09.546Z,2.43
2022-12-26T16:55:44.299Z,2.37
2022-12-26T16:58:23.649Z,2.10
2022-12-26T17:01:11.388Z,1.67
2022-12-26T17:03:52.691Z,1.57
2022-12-26T17:06:26.554Z,1.43
2022-12-26T17:08:55.845Z,2.00
2022-12-26T17:11:30.025Z,2.00
2022-12-26T17:13:58.717Z,1.40
2022-12-26T17:16:29.598Z,1.50
2022-12-26T17:19:10.903Z,2.07
2022-12-26T17:21:38.900Z,2.20
2022-12-26T17:24:26.463Z,2.37
2022-12-26T17:27:09.855Z,3.70
2022-12-26T17:29:50.261Z,2.30
2022-12-26T17:32:27.920Z,1.73
2022-12-26T17:35:01.723Z,2.37
2022-12-26T17:37:29.709Z,4.10
2022-12-26T17:40:07.815Z,2.00
2022-12-26T17:42:45.245Z,1.60
2022-12-26T17:45:17.465Z,1.97
2022-12-26T17:47:45.375Z,2.30
2022-12-26T17:50:14.947Z,1.70
2022-12-26T17:52:43.299Z,3.30
2022-12-26T17:55:18.153Z,2.83
2022-12-26T17:57:46.220Z,1.70
2022-12-26T18:00:19.997Z,1.70
2022-12-26T18:02:48.137Z,1.70
2022-12-26T18:05:18.205Z,2.13
2022-12-26T18:07:47.262Z,1.80
2022-12-26T18:10:19.164Z,1.40
2022-12-26T18:12:47.177Z,1.40
2022-12-26T18:15:15.213Z,1.70
2022-12-26T18:17:43.519Z,1.70
2022-12-26T18:20:18.955Z,1.40
2022-12-26T18:22:47.591Z,1.40
2022-12-26T18:25:16.545Z,1.40
2022-12-26T18:27:45.011Z,2.10
2022-12-26T18:30:16.527Z,1.33
2022-12-26T18:32:44.649Z,2.10
2022-12-26T18:35:13.031Z,2.67
2022-12-26T18:37:44.603Z,1.37
2022-12-26T18:40:25.752Z,1.70
2022-12-26T18:42:56.390Z,1.30
2022-12-26T18:45:24.381Z,0.80
2022-12-26T18:47:52.354Z,1.27
2022-12-26T18:50:20.813Z,2.10
2022-12-26T18:52:53.769Z,1.40
2022-12-26T18:55:22.723Z,1.73
2022-12-26T18:57:51.122Z,2.07
2022-12-26T19:00:20.321Z,1.53
2022-12-26T19:02:48.611Z,2.10
2022-12-26T19:05:19.064Z,2.00
2022-12-26T19:07:48.280Z,0.93
2022-12-26T19:10:19.140Z,0.90
2022-12-26T19:12:47.279Z,0.80
2022-12-26T19:15:15.579Z,1.00
2022-12-26T19:17:43.721Z,1.00
2022-12-26T19:20:21.518Z,1.83
2022-12-26T19:22:50.471Z,0.80
2022-12-26T19:25:21.602Z,1.63
2022-12-26T19:27:50.103Z,1.60
2022-12-26T19:30:19.454Z,1.83
2022-12-26T19:32:47.735Z,2.03
2022-12-26T19:35:16.973Z,4.63
2022-12-26T19:37:45.415Z,7.87
2022-12-26T19:40:18.382Z,16.53
2022-12-26T19:42:51.006Z,13.27
2022-12-26T19:45:19.083Z,13.67
2022-12-26T19:47:46.982Z,7.77
2022-12-26T19:50:15.234Z,5.90
2022-12-26T19:52:43.130Z,4.70
2022-12-26T19:55:12.747Z,2.07
2022-12-26T19:57:40.665Z,1.60
2022-12-26T20:00:12.065Z,1.53
2022-12-26T20:02:40.193Z,1.10
2022-12-26T20:05:09.162Z,1.60
2022-12-26T20:07:37.291Z,2.67
2022-12-26T20:10:06.417Z,3.03
2022-12-26T20:12:34.287Z,2.80
2022-12-26T20:15:02.202Z,2.50
2022-12-26T20:17:31.448Z,2.60
2022-12-26T20:19:59.362Z,3.87
2022-12-26T20:22:27.411Z,3.10
2022-12-26T20:24:55.367Z,7.20
2022-12-26T20:27:23.259Z,2.93
2022-12-26T20:29:51.115Z,2.27
2022-12-26T20:32:18.979Z,1.97
2022-12-26T20:34:48.248Z,1.43
2022-12-26T20:37:16.160Z,1.00
2022-12-26T20:39:45.360Z,2.43
2022-12-26T20:42:15.644Z,1.63
2022-12-26T20:44:43.544Z,1.50
2022-12-26T20:47:11.458Z,1.53
2022-12-26T20:49:39.344Z,1.20
2022-12-26T20:52:08.536Z,1.40
2022-12-26T20:54:36.442Z,1.37
2022-12-26T20:57:04.553Z,1.17
2022-12-26T20:59:32.427Z,1.10
2022-12-26T21:02:00.490Z,0.93
2022-12-26T21:04:28.477Z,1.10
2022-12-26T21:06:56.351Z,0.70
2022-12-26T21:09:25.615Z,1.00
2022-12-26T21:11:53.508Z,0.97
2022-12-26T21:14:23.496Z,0.50
2022-12-26T21:16:53.854Z,0.60
2022-12-26T21:19:22.797Z,1.50
2022-12-26T21:21:52.694Z,1.53
2022-12-26T21:24:22.479Z,1.73
2022-12-26T21:26:52.784Z,1.60
2022-12-26T21:29:24.640Z,1.00
2022-12-26T21:31:52.996Z,2.33
2022-12-26T21:34:23.057Z,0.93
2022-12-26T21:37:05.340Z,1.07
2022-12-26T21:39:34.781Z,1.23
2022-12-26T21:42:06.106Z,1.30
2022-12-26T21:44:34.129Z,2.73
2022-12-26T21:47:03.344Z,1.47
2022-12-26T21:49:31.231Z,1.00
2022-12-26T21:51:59.111Z,1.33
2022-12-26T21:54:48.584Z,2.33
2022-12-26T21:57:18.913Z,1.27
2022-12-26T21:59:59.955Z,1.60
2022-12-26T22:02:47.625Z,1.37
2022-12-26T22:05:16.216Z,1.00
2022-12-26T22:07:44.292Z,0.70
2022-12-26T22:10:33.393Z,0.60
2022-12-26T22:13:02.931Z,0.83
2022-12-26T22:15:59.830Z,1.37
2022-12-26T22:18:27.839Z,0.63
2022-12-26T22:20:55.757Z,0.40
2022-12-26T22:23:23.644Z,1.03
2022-12-26T22:25:55.588Z,0.60
2022-12-26T22:28:25.396Z,1.90
2022-12-26T22:30:53.314Z,1.47
2022-12-26T22:33:21.287Z,0.50
2022-12-26T22:35:49.227Z,0.37
2022-12-26T22:38:17.162Z,0.67
2022-12-26T22:40:56.997Z,1.03
2022-12-26T22:43:26.958Z,1.23
2022-12-26T22:45:55.291Z,0.87
2022-12-26T22:48:24.623Z,0.73
2022-12-26T22:50:54.307Z,0.60
2022-12-26T22:53:24.268Z,0.93
2022-12-26T22:55:53.663Z,0.70
2022-12-26T22:58:21.567Z,0.60
2022-12-26T23:00:51.117Z,0.50
2022-12-26T23:03:19.727Z,0.63
2022-12-26T23:05:48.514Z,0.40
2022-12-26T23:08:19.339Z,0.57
2022-12-26T23:10:48.722Z,0.60
2022-12-26T23:13:17.494Z,0.50
2022-12-26T23:15:54.530Z,1.40
2022-12-26T23:18:59.701Z,0.80
2022-12-26T23:21:45.148Z,0.80
2022-12-26T23:24:16.271Z,2.53
2022-12-26T23:26:46.192Z,0.50
2022-12-26T23:29:32.930Z,0.40
2022-12-26T23:32:02.443Z,0.60
2022-12-26T23:34:30.417Z,1.43
2022-12-26T23:36:58.643Z,0.60
2022-12-26T23:39:26.874Z,0.90
2022-12-26T23:41:54.875Z,0.57
2022-12-26T23:44:23.100Z,0.93
2022-12-26T23:46:51.025Z,0.73
2022-12-26T23:49:20.292Z,0.50
2022-12-26T23:51:48.156Z,0.50
2022-12-26T23:54:16.039Z,0.83
2022-12-26T23:56:43.939Z,0.60
2022-12-26T23:59:11.839Z,1.17
